Eynon, Pennsylvania
Current Conditions -  °F | °C
As of 11:54 AM on Saturday 25 Oct 2014 (Local Time) from KAVP Reporting Station
Overcast Overcast  
Wind Chill: 57°   Ceiling: 3900
Heat Index: 57°   Visibility: 10mi
Dew Point: 41°   Wind: 5mph
Humidity: 55%   Direction: 260°W
Pressure: 29.82"   Gusts: NA
Location:  41.5069°N, 75.5327°W
Report Text: KAVP 251554Z 26004KT 10SM OVC039 14/05 A2982 RMK AO2 SLP097 T01390050
Loading
Personal Weather Stations






























Interactive Weather Map
Tropical Storm Tracking
New forecast layout! Learn more

10-Day Weather Forecast

Advertisements
Track Severe Weather on mobile